• Join FlightAware (Why Join?)
  • Login
  • US Flag 
08:11AM EDT


 

Airport Tracker/Info


-or-


 

Live Flight TrackerFlight Track Log ✈ TAM3386 ✈ 01-May-2013 ✈ SBGR / GRU - SBBE / BEL

Flight Track Log - Related Links

Times and Time Zones

All times are in EDT time to prevent confusion due to time zone crossing. See the TAM3386 flight status page for this flight to view local times or setup timezone preferences in your user account.

Time Position Orientation Groundspeed Altitude Reporting Facility
EDT Latitude Longitude Course Direction KTS MPH feet Rate Location/Type
06:29PM -23.4110 -46.3990 75° East 208 239 4,000  Level FlightAware
06:30PM -23.3950 -46.3470 71° East 217 250 5,700 1,800 Climbing FlightAware
06:31PM -23.3840 -46.3220 64° Northeast 228 262 6,300 1,380 Climbing FlightAware
06:31PM -23.3780 -46.3180 31° Northeast 236 272 6,400 900 Climbing FlightAware
06:31PM -23.3390 -46.2990 24° Northeast 280 322 6,900 1,260 Climbing FlightAware
06:32PM -23.3070 -46.2840 23° Northeast 294 338 7,700 1,920 Climbing FlightAware
06:32PM -23.2770 -46.2680 26° Northeast 300 345 8,500 1,980 Climbing FlightAware
06:33PM -23.2330 -46.2450 26° Northeast 309 356 9,700 1,620 Climbing FlightAware
06:33PM -23.1720 -46.2130 26° Northeast 341 392 10,700 1,200 Climbing FlightAware
06:34PM -23.1210 -46.1860 26° Northeast 369 425 11,300 1,260 Climbing FlightAware
06:34PM -23.0930 -46.1760 18° North 373 429 11,900 2,040 Climbing FlightAware
06:36PM -22.9670 -46.1940 353° North 375 432 14,400 1,920 Climbing FlightAware
06:36PM -22.8940 -46.2060 351° North 387 445 15,500 1,860 Climbing FlightAware
06:37PM -22.8140 -46.2200 351° North 373 429 17,100 2,100 Climbing FlightAware
06:38PM -22.7470 -46.2320 351° North 371 427 18,500 1,680 Climbing FlightAware
06:38PM -22.6770 -46.2440 351° North 374 430 19,400 1,320 Climbing FlightAware
06:39PM -22.5960 -46.2580 351° North 378 435 20,400 1,320 Climbing FlightAware
06:40PM -22.5250 -46.2700 351° North 390 449 21,300 960 Climbing FlightAware
06:40PM -22.4610 -46.2810 351° North 406 467 21,600 480 Climbing FlightAware
06:41PM -22.3740 -46.2960 351° North 427 491 22,000 420 Climbing FlightAware
06:42PM -22.2970 -46.3090 351° North 442 509 22,200 660 Climbing FlightAware
06:42PM -22.2140 -46.3230 351° North 439 505 22,900 900 Climbing FlightAware
06:43PM -22.1220 -46.3380 351° North 454 522 23,500 960 Climbing FlightAware
06:44PM -22.0350 -46.3550 350° North 444 511 24,300 1,620 Climbing FlightAware
06:45PM -21.9470 -46.3710 350° North 426 490 25,800 1,320 Climbing FlightAware
06:45PM -21.8660 -46.3860 350° North 438 504 26,200 1,020 Climbing FlightAware
06:46PM -21.7760 -46.4000 352° North 438 504 27,300 1,200 Climbing FlightAware
06:47PM -21.6960 -46.4130 351° North 441 507 27,900 780 Climbing FlightAware
06:47PM -21.6110 -46.4270 351° North 438 504 28,400 720 Climbing FlightAware
06:48PM -21.5220 -46.4420 351° North 443 510 29,000 720 Climbing FlightAware
06:49PM -21.4370 -46.4550 352° North 456 525 29,500 660 Climbing FlightAware
06:49PM -21.3450 -46.4710 351° North 454 522 30,000 600 Climbing FlightAware
06:50PM -21.2580 -46.4850 351° North 468 539 30,400 600 Climbing FlightAware
06:51PM -21.1720 -46.4990 351° North 472 543 30,800 840 Climbing FlightAware
06:52PM -21.0750 -46.5150 351° North 468 539 31,600 1,080 Climbing FlightAware
06:52PM -20.9890 -46.5280 352° North 455 524 32,400 1,140 Climbing FlightAware
06:53PM -20.8370 -46.5530 351° North 454 522 33,700 1,080 Climbing FlightAware
06:54PM -20.7620 -46.5650 351° North 447 514 34,400 660 Climbing FlightAware
06:55PM -20.6590 -46.5820 351° North 452 520 34,700 300 Climbing FlightAware
06:55PM -20.5760 -46.5960 351° North 455 524 34,900 180 Climbing FlightAware
06:56PM -20.4820 -46.6110 351° North 463 533 35,000 60 Climbing FlightAware
06:57PM -20.3980 -46.6270 350° North 471 542 35,000  Level FlightAware
06:58PM -20.3080 -46.6440 350° North 481 554 35,000  Level FlightAware
07:00PM -20.1006 -46.6658 354° North  Level Estimated
07:00PM -19.9920 -46.7010 354° North 481 554 35,000  Level FlightAware
07:01PM -19.8690 -46.7230 350° North 479 551 35,000  Level FlightAware
07:02PM -19.7570 -46.7430 350° North 479 551 35,000  Level FlightAware
07:04PM -19.5679 -46.7623 355° North  Level Estimated
07:04PM -19.4430 -46.8000 355° North 480 552 35,000  Level FlightAware
07:07PM -19.1804 -46.8262 355° North  Level Estimated
07:07PM -19.1110 -46.8570 355° North 479 551 35,000  Level FlightAware
07:07PM -19.0620 -46.8640 352° North 479 551 35,000  Level FlightAware
07:08PM -18.9690 -46.8790 351° North 478 550 35,000  Level FlightAware
07:09PM -18.8740 -46.8940 352° North 479 551 35,000  Level FlightAware
07:09PM -18.8100 -46.9040 352° North 479 551 35,000 -240 Level FlightAware
07:12PM -18.5749 -46.9267 355° North  Level Estimated
07:13PM -18.4647 -46.9374 355° North  Level Estimated
07:13PM -18.2810 -46.9750 355° North 482 555 34,000  Level FlightAware
07:14PM -18.1530 -46.9920 353° North 482 555 34,000  Level FlightAware
07:15PM -17.9730 -47.0160 353° North 483 556 34,000  Level FlightAware
07:16PM -17.8970 -47.0260 353° North 483 556 34,000  Level FlightAware
07:17PM -17.8220 -47.0360 353° North 483 556 34,000  Level FlightAware
07:17PM -17.7270 -47.0480 353° North 483 556 34,000  Level FlightAware
07:18PM -17.6520 -47.0580 353° North 483 556 34,000  Level FlightAware
07:19PM -17.5770 -47.0680 353° North 483 556 34,000  Level FlightAware
07:19PM -17.5010 -47.0770 354° North 483 556 34,000  Level FlightAware
07:20PM -17.4260 -47.0870 353° North 483 556 34,000  Level FlightAware
07:21PM -17.3320 -47.0990 353° North 483 556 34,000  Level FlightAware
07:22PM -17.2560 -47.1090 353° North 483 556 34,000  Level FlightAware
07:22PM -17.1810 -47.1180 353° North 483 556 34,000  Level FlightAware
07:23PM -17.1050 -47.1280 353° North 483 556 34,000  Level FlightAware
07:24PM -17.0300 -47.1380 353° North 483 556 34,000  Level FlightAware
07:24PM -16.7460 -47.1910 350° North 34,000  Level FlightAware
07:26PM -16.5100 -47.2270 352° North 486 559 34,000  Level FlightAware
07:27PM -16.4190 -47.2390 353° North 485 558 34,000  Level FlightAware
07:28PM -16.2490 -47.2610 353° North 471 542 34,000  Level FlightAware
07:29PM -16.1550 -47.2730 353° North 479 551 34,000  Level FlightAware
07:30PM -15.9800 -47.2950 353° North 476 548 34,000  Level FlightAware
07:31PM -15.8920 -47.3060 353° North 478 550 34,000  Level FlightAware
07:32PM -15.7720 -47.3210 353° North 478 550 34,000  Level FlightAware
07:33PM -15.6300 -47.3460 350° North 480 552 34,000  Level FlightAware
07:34PM -15.5370 -47.3810 340° North 479 551 34,000  Level FlightAware
07:34PM -15.4760 -47.4150 332° Northwest 473 544 34,000  Level FlightAware
07:35PM -15.3930 -47.4740 326° Northwest 467 537 34,000  Level FlightAware
07:36PM -15.3240 -47.5270 323° Northwest 464 534 34,000  Level FlightAware
07:38PM -15.1068 -47.5425 356° North  Level Estimated
07:39PM -14.9964 -47.5503 356° North  Level Estimated
07:39PM -14.9420 -47.8210 356° North 462 532 34,000  Level FlightAware
07:40PM -14.8650 -47.8810 323° Northwest 463 533 34,000  Level FlightAware
07:41PM -14.8060 -47.9260 324° Northwest 463 533 34,000  Level FlightAware
07:42PM -14.7340 -47.9830 323° Northwest 463 533 34,000  Level FlightAware
07:42PM -14.6280 -48.0480 329° Northwest 466 536 34,000  Level FlightAware
07:43PM -14.5470 -48.0820 338° Northwest 469 540 34,000  Level FlightAware
07:44PM -14.4490 -48.1060 347° North 473 544 34,000  Level FlightAware
07:44PM -14.3760 -48.1190 350° North 473 544 34,000  Level FlightAware
07:45PM -14.3020 -48.1320 350° North 473 544 34,000  Level FlightAware
07:46PM -14.2290 -48.1460 349° North 473 544 34,000  Level FlightAware
07:46PM -14.1560 -48.1590 350° North 473 544 34,000  Level FlightAware
07:47PM -14.0640 -48.1760 350° North 473 544 34,000  Level FlightAware
07:48PM -13.9910 -48.1890 350° North 473 544 34,000  Level FlightAware
07:49PM -13.9180 -48.2020 350° North 473 544 34,000  Level FlightAware
07:49PM -13.8440 -48.2160 350° North 473 544 34,000  Level FlightAware
07:50PM -13.7710 -48.2290 350° North 473 544 34,000  Level FlightAware
07:51PM -13.6800 -48.2460 350° North 473 544 34,000  Level FlightAware
07:51PM -13.6060 -48.2590 350° North 473 544 34,000  Level FlightAware
07:52PM -13.5330 -48.2720 350° North 473 544 34,000  Level FlightAware
07:53PM -13.4600 -48.2850 350° North 473 544 34,000  Level FlightAware
07:53PM -13.3870 -48.2990 349° North 473 544 34,000  Level FlightAware
07:56PM -13.1509 -48.3026 359° North  Level Estimated
07:57PM -13.0403 -48.3043 359° North  Level Estimated
07:58PM -12.9296 -48.3060 359° North  Level Estimated
07:59PM -12.8189 -48.3077 359° North  Level Estimated
08:00PM -12.7083 -48.3093 359° North  Level Estimated
08:01PM -12.5976 -48.3110 359° North  Level Estimated
08:02PM -12.4870 -48.3127 359° North  Level Estimated
08:03PM -12.3763 -48.3144 359° North  Level Estimated
08:04PM -12.2656 -48.3161 359° North  Level Estimated
08:05PM -12.1550 -48.3177 359° North  Level Estimated
08:05PM -12.0420 -48.2540 359° North 34,000  Level FlightAware
08:06PM -11.5670 -48.2830 357° North 474 545 34,000  Level FlightAware
08:07PM -11.4390 -48.2900 357° North 475 547 34,000  Level FlightAware
08:08PM -11.3160 -48.2980 356° North 475 547 34,000  Level FlightAware
08:08PM -11.2280 -48.3030 357° North 475 547 34,000  Level FlightAware
08:09PM -11.1410 -48.3080 357° North 474 545 34,000  Level FlightAware
08:10PM -11.0460 -48.3140 356° North 475 547 34,000  Level FlightAware
08:10PM -10.9550 -48.3190 357° North 475 547 34,000  Level FlightAware
08:11PM -10.8520 -48.3260 356° North 474 545 34,000  Level FlightAware
08:12PM -10.7590 -48.3330 356° North 474 545 34,000  Level FlightAware
08:12PM -10.6630 -48.3360 358° North 473 544 34,000  Level FlightAware
08:13PM -10.5570 -48.3430 356° North 473 544 34,000  Level FlightAware
08:14PM -10.4700 -48.3480 357° North 473 544 34,000  Level FlightAware
08:15PM -10.3960 -48.3540 355° North 473 544 34,000  Level FlightAware
08:16PM -10.2360 -48.3620 357° North 471 542 34,000  Level FlightAware
08:16PM -10.2160 -48.3620 360° North 472 543 34,000  Level FlightAware
08:17PM -10.1420 -48.3660 357° North 472 543 34,000  Level FlightAware
08:18PM -10.2830 -48.3590 177° South 34,000  Level FlightAware
08:20PM -10.0838 -48.3617 359° North  Level Estimated
08:20PM -9.7370 -48.3660 359° North 469 540 34,000  Level FlightAware
08:20PM -9.6630 -48.3670 359° North 469 540 34,000  Level FlightAware
08:21PM -9.5310 -48.3690 359° North 469 540 34,000  Level FlightAware
08:22PM -9.4280 -48.3620 North 469 540 34,000  Level FlightAware
08:23PM -9.3430 -48.3360 17° North 470 541 34,000  Level FlightAware
08:23PM -9.2620 -48.3050 21° North 471 542 34,000  Level FlightAware
08:24PM -9.1700 -48.2700 21° North 470 541 34,000  Level FlightAware
08:25PM -9.0980 -48.2540 12° North 472 543 34,000  Level FlightAware
08:25PM -9.0570 -48.2550 359° North 471 542 34,000  Level FlightAware
08:26PM -8.9710 -48.2580 358° North 472 543 34,000  Level FlightAware
08:27PM -8.8220 -48.2610 359° North 468 539 34,000  Level FlightAware
08:27PM -8.7370 -48.2640 358° North 468 539 34,000  Level FlightAware
08:28PM -8.7720 -48.2630 178° South 468 539 34,000  Level FlightAware
08:29PM -8.5020 -48.2710 358° North 468 539 34,000  Level FlightAware
08:30PM -8.4280 -48.2740 358° North 468 539 34,000  Level FlightAware
08:31PM -8.3550 -48.2760 358° North 468 539 34,000  Level FlightAware
08:31PM -8.2810 -48.2790 358° North 468 539 34,000  Level FlightAware
08:32PM -8.1890 -48.2820 358° North 468 539 34,000  Level FlightAware
08:33PM -8.1160 -48.2850 358° North 468 539 34,000  Level FlightAware
08:33PM -8.0420 -48.2870 358° North 468 539 34,000  Level FlightAware
08:34PM -7.9690 -48.2900 358° North 468 539 34,000  Level FlightAware
08:35PM -7.8950 -48.2920 358° North 468 539 34,000  Level FlightAware
08:36PM -7.8030 -48.2960 358° North 468 539 34,000  Level FlightAware
08:36PM -7.7660 -48.2970 358° North 468 539 34,000  Level FlightAware
08:37PM -7.6740 -48.3000 358° North 468 539 34,000  Level FlightAware
08:37PM -7.6010 -48.3030 358° North 468 539 34,000  Level FlightAware
08:38PM -7.5270 -48.3050 358° North 468 539 34,000  Level FlightAware
08:39PM -7.4540 -48.3080 358° North 468 539 34,000  Level FlightAware
08:41PM -7.2641 -48.3133 358° North  Level Estimated
08:42PM -7.1535 -48.3164 358° North  Level Estimated
08:43PM -7.0428 -48.3195 358° North  Level Estimated
08:44PM -6.9322 -48.3226 358° North  Level Estimated
08:45PM -6.8216 -48.3257 358° North  Level Estimated
08:46PM -6.7109 -48.3288 358° North  Level Estimated
08:47PM -6.6003 -48.3318 358° North  Level Estimated
08:48PM -6.4897 -48.3349 358° North  Level Estimated
08:49PM -6.3790 -48.3380 358° North  Level Estimated
08:50PM -6.2684 -48.3411 358° North  Level Estimated
08:51PM -6.1578 -48.3442 358° North  Level Estimated
08:52PM -6.0472 -48.3473 358° North  Level Estimated
08:53PM -5.9365 -48.3503 358° North  Level Estimated
08:54PM -5.8259 -48.3534 358° North  Level Estimated
08:55PM -5.7153 -48.3565 358° North  Level Estimated
08:56PM -5.6046 -48.3596 358° North  Level Estimated
08:57PM -5.4940 -48.3626 358° North  Level Estimated
08:58PM -5.3834 -48.3657 358° North  Level Estimated
08:59PM -5.2727 -48.3688 358° North  Level Estimated
09:00PM -5.1621 -48.3718 358° North  Level Estimated
09:01PM -5.0515 -48.3749 358° North  Level Estimated
09:02PM -4.9408 -48.3780 358° North  Level Estimated
09:03PM -4.8302 -48.3810 358° North  Level Estimated
09:04PM -4.7196 -48.3841 358° North  Level Estimated
09:05PM -4.6090 -48.3872 358° North  Level Estimated
09:06PM -4.4983 -48.3902 358° North  Level Estimated
09:07PM -4.3877 -48.3933 358° North  Level Estimated
09:08PM -4.2771 -48.3963 358° North  Level Estimated
09:09PM -4.1664 -48.3994 358° North  Level Estimated
09:10PM -4.0558 -48.4025 358° North  Level Estimated
09:11PM -3.9452 -48.4055 358° North  Level Estimated
09:12PM -3.8345 -48.4086 358° North  Level Estimated
09:13PM -3.7239 -48.4116 358° North  Level Estimated
09:14PM -3.6133 -48.4147 358° North  Level Estimated
09:15PM -3.5027 -48.4178 358° North  Level Estimated
09:16PM -3.3920 -48.4208 358° North  Level Estimated
09:17PM -3.2814 -48.4239 358° North  Level Estimated
09:18PM -3.1708 -48.4269 358° North  Level Estimated
09:19PM -3.0601 -48.4300 358° North  Level Estimated
09:20PM -2.9495 -48.4330 358° North  Level Estimated
09:21PM -2.8389 -48.4361 358° North  Level Estimated
09:22PM -2.7283 -48.4391 358° North  Level Estimated
09:23PM -2.6176 -48.4422 358° North  Level Estimated
09:24PM -2.5070 -48.4452 358° North  Level Estimated
09:25PM -2.3964 -48.4483 358° North  Level Estimated
09:26PM -2.2857 -48.4513 358° North  Level Estimated
09:27PM -2.1751 -48.4544 358° North  Level Estimated
09:28PM -2.0645 -48.4574 358° North  Level Estimated
09:29PM -1.9538 -48.4605 358° North  Level Estimated
09:30PM -1.8432 -48.4635 358° North  Level Estimated
09:31PM -1.7326 -48.4666 358° North  Level Estimated
09:32PM -1.6220 -48.4696 358° North  Level Estimated
09:33PM -1.5113 -48.4727 358° North  Level Estimated
09:34PM -1.4007 -48.4757 358° North  Level Estimated
09:35PM -1.3793 -48.4763 358° North  Level Estimated
09:36PM -1.3793 -48.4763 270° West  Level Estimated
09:37PM -1.3793 -48.4763 270° West  Level Estimated
09:38PM -1.3793 -48.4763 270° West  Level Estimated
09:39PM -1.3793 -48.4763 270° West  Level Estimated
09:40PM -1.3793 -48.4763 270° West  Level Estimated
09:41PM -1.3793 -48.4763 270° West  Level Estimated
09:42PM -1.3793 -48.4763 270° West  Level Estimated
09:43PM -1.3793 -48.4763 270° West  Level Estimated
09:44PM -1.3793 -48.4763 270° West  Level Estimated
09:45PM -1.3793 -48.4763 270° West  Level Estimated
09:46PM -1.3793 -48.4763 270° West  Level Estimated
09:47PM -1.3793 -48.4763 270° West  Level Estimated
09:48PM -1.3793 -48.4763 270° West  Level Estimated
09:49PM -1.3793 -48.4763 270° West  Level Estimated